createdAt,value
2022-08-18T00:01:14.716Z,100.00
2022-08-18T00:03:56.899Z,100.00
2022-08-18T00:06:31.444Z,100.00
2022-08-18T00:09:00.169Z,100.00
2022-08-18T00:11:40.355Z,100.00
2022-08-18T00:14:13.853Z,100.00
2022-08-18T00:16:52.052Z,100.00
2022-08-18T00:19:20.391Z,100.00
2022-08-18T00:22:08.472Z,100.00
2022-08-18T00:24:48.727Z,100.00
2022-08-18T00:27:19.668Z,100.00
2022-08-18T00:29:51.907Z,100.00
2022-08-18T00:32:21.027Z,100.00
2022-08-18T00:34:49.318Z,100.00
2022-08-18T00:37:17.660Z,100.00
2022-08-18T00:39:47.888Z,100.00
2022-08-18T00:42:27.292Z,100.00
2022-08-18T00:45:05.375Z,100.00
2022-08-18T00:47:42.718Z,100.00
2022-08-18T00:50:16.097Z,100.00
2022-08-18T00:52:48.954Z,100.00
2022-08-18T00:55:19.601Z,100.00
2022-08-18T00:57:49.697Z,100.00
2022-08-18T01:00:19.649Z,100.00
2022-08-18T01:02:49.150Z,100.00
2022-08-18T01:05:23.107Z,100.00
2022-08-18T01:07:52.238Z,100.00
2022-08-18T01:10:21.797Z,100.00
2022-08-18T01:12:51.028Z,100.00
2022-08-18T01:15:29.566Z,100.00
2022-08-18T01:18:16.481Z,100.00
2022-08-18T01:21:04.116Z,100.00
2022-08-18T01:23:33.735Z,100.00
2022-08-18T01:26:00.946Z,100.00
2022-08-18T01:28:29.680Z,100.00
2022-08-18T01:30:59.321Z,100.00
2022-08-18T01:33:30.289Z,100.00
2022-08-18T01:35:58.631Z,100.00
2022-08-18T01:38:27.449Z,100.00
2022-08-18T01:41:24.065Z,100.00
2022-08-18T01:43:46.415Z,100.00
2022-08-18T01:46:20.133Z,100.00
2022-08-18T01:48:49.530Z,100.00
2022-08-18T01:51:17.987Z,100.00
2022-08-18T01:53:46.965Z,100.00
2022-08-18T01:56:17.834Z,100.00
2022-08-18T01:58:47.817Z,100.00
2022-08-18T02:01:16.537Z,100.00
2022-08-18T02:03:49.129Z,100.00
2022-08-18T02:06:18.691Z,100.00
2022-08-18T02:09:00.605Z,100.00
2022-08-18T02:11:30.323Z,100.00
2022-08-18T02:13:58.405Z,100.00
2022-08-18T02:16:26.431Z,100.00
2022-08-18T02:18:54.721Z,100.00
2022-08-18T02:21:23.318Z,100.00
2022-08-18T02:23:53.703Z,100.00
2022-08-18T02:26:22.305Z,100.00
2022-08-18T02:28:51.999Z,100.00
2022-08-18T02:31:21.570Z,100.00
2022-08-18T02:33:52.009Z,100.00
2022-08-18T02:36:21.184Z,100.00
2022-08-18T02:38:56.731Z,100.00
2022-08-18T02:41:29.630Z,100.00
2022-08-18T02:44:00.158Z,100.00
2022-08-18T02:46:30.234Z,100.00
2022-08-18T02:49:00.745Z,100.00
2022-08-18T02:51:28.839Z,100.00
2022-08-18T02:53:59.857Z,100.00
2022-08-18T02:56:40.551Z,100.00
2022-08-18T02:59:13.221Z,100.00
2022-08-18T03:01:42.945Z,100.00
2022-08-18T03:04:12.120Z,100.00
2022-08-18T03:06:40.449Z,100.00
2022-08-18T03:09:12.278Z,100.00
2022-08-18T03:11:40.448Z,100.00
2022-08-18T03:14:11.647Z,100.00
2022-08-18T03:16:47.185Z,100.00
2022-08-18T03:19:22.637Z,100.00
2022-08-18T03:21:51.003Z,100.00
2022-08-18T03:24:22.293Z,100.00
2022-08-18T03:26:51.407Z,100.00
2022-08-18T03:29:19.565Z,100.00
2022-08-18T03:31:49.284Z,100.00
2022-08-18T03:34:19.950Z,100.00
2022-08-18T03:36:49.238Z,100.00
2022-08-18T03:39:20.628Z,100.00
2022-08-18T03:42:00.209Z,100.00
2022-08-18T03:44:30.544Z,100.00
2022-08-18T03:47:01.620Z,100.00
2022-08-18T03:49:29.646Z,100.00
2022-08-18T03:52:01.060Z,100.00
2022-08-18T03:54:29.763Z,100.00
2022-08-18T03:56:57.855Z,100.00
2022-08-18T03:59:27.750Z,100.00
2022-08-18T04:01:56.567Z,100.00
2022-08-18T04:04:27.395Z,100.00
2022-08-18T04:06:58.208Z,100.00
2022-08-18T04:09:27.752Z,100.00
2022-08-18T04:11:56.458Z,100.00
2022-08-18T04:14:26.086Z,100.00
2022-08-18T04:16:54.373Z,100.00
2022-08-18T04:19:26.510Z,100.00
2022-08-18T04:21:57.803Z,100.00
2022-08-18T04:24:28.240Z,100.00
2022-08-18T04:27:01.182Z,100.00
2022-08-18T04:29:30.376Z,100.00
2022-08-18T04:31:58.570Z,100.00
2022-08-18T04:34:27.481Z,100.00
2022-08-18T04:36:56.881Z,100.00
2022-08-18T04:39:25.847Z,100.00
2022-08-18T04:41:54.392Z,100.00
2022-08-18T04:44:22.748Z,100.00
2022-08-18T04:46:53.070Z,100.00
2022-08-18T04:49:22.417Z,100.00
2022-08-18T04:52:26.847Z,100.00
2022-08-18T04:54:55.166Z,100.00
2022-08-18T04:57:24.087Z,100.00
2022-08-18T04:59:53.563Z,100.00
2022-08-18T05:02:22.747Z,100.00
2022-08-18T05:04:52.721Z,100.00
2022-08-18T05:07:22.653Z,100.00
2022-08-18T05:09:52.079Z,100.00
2022-08-18T05:12:25.960Z,100.00
2022-08-18T05:14:57.116Z,100.00
2022-08-18T05:17:28.878Z,100.00
2022-08-18T05:20:00.770Z,100.00
2022-08-18T05:22:31.089Z,100.00
2022-08-18T05:25:00.478Z,100.00
2022-08-18T05:27:34.199Z,100.00
2022-08-18T05:30:02.618Z,100.00
2022-08-18T05:32:47.091Z,100.00
2022-08-18T05:35:19.774Z,100.00
2022-08-18T05:37:58.478Z,100.00
2022-08-18T05:40:28.259Z,100.00
2022-08-18T05:42:58.619Z,100.00
2022-08-18T05:45:27.630Z,100.00
2022-08-18T05:47:58.771Z,100.00
2022-08-18T05:50:27.502Z,100.00
2022-08-18T05:52:57.011Z,100.00
2022-08-18T05:55:48.076Z,100.00
2022-08-18T05:58:20.939Z,100.00
2022-08-18T06:00:57.510Z,100.00
2022-08-18T06:03:30.894Z,100.00
2022-08-18T06:06:16.465Z,100.00
2022-08-18T06:08:48.332Z,100.00
2022-08-18T06:11:17.320Z,100.00
2022-08-18T06:13:59.276Z,100.00
2022-08-18T06:16:35.811Z,100.00
2022-08-18T06:19:09.504Z,100.00
2022-08-18T06:21:43.983Z,100.00
2022-08-18T06:24:19.334Z,100.00
2022-08-18T06:26:51.819Z,100.00
2022-08-18T06:29:30.023Z,100.00
2022-08-18T06:32:06.162Z,100.00
2022-08-18T06:34:42.663Z,100.00
2022-08-18T06:37:20.155Z,100.00
2022-08-18T06:39:49.367Z,100.00
2022-08-18T06:42:21.756Z,100.00
2022-08-18T06:44:54.070Z,100.00
2022-08-18T06:47:31.330Z,100.00
2022-08-18T06:50:05.269Z,100.00
2022-08-18T06:52:39.989Z,100.00
2022-08-18T06:55:09.238Z,100.00
2022-08-18T06:57:38.880Z,100.00
2022-08-18T07:03:21.978Z,100.00
2022-08-18T07:06:01.018Z,100.00
2022-08-18T07:08:31.974Z,100.00
2022-08-18T07:11:13.579Z,100.00
2022-08-18T07:13:44.840Z,100.00
2022-08-18T07:16:40.567Z,100.00
2022-08-18T07:19:15.277Z,100.00
2022-08-18T07:22:02.661Z,100.00
2022-08-18T07:24:33.596Z,100.00
2022-08-18T07:27:03.355Z,100.00
2022-08-18T07:29:33.013Z,100.00
2022-08-18T07:32:04.325Z,100.00
2022-08-18T07:34:37.591Z,100.00
2022-08-18T07:37:09.379Z,100.00
2022-08-18T07:39:40.119Z,100.00
2022-08-18T07:42:53.898Z,100.00
2022-08-18T07:45:13.699Z,100.00
2022-08-18T07:47:47.124Z,100.00
2022-08-18T07:50:27.057Z,100.00
2022-08-18T07:53:10.611Z,100.00
2022-08-18T07:55:42.716Z,100.00
2022-08-18T07:58:17.467Z,100.00
2022-08-18T08:01:05.241Z,100.00
2022-08-18T08:03:38.197Z,100.00
2022-08-18T08:06:09.223Z,100.00
2022-08-18T08:08:41.083Z,100.00
2022-08-18T08:11:14.826Z,100.00
2022-08-18T08:13:55.812Z,100.00
2022-08-18T08:16:33.357Z,100.00
2022-08-18T08:19:12.323Z,100.00
2022-08-18T08:21:45.586Z,100.00
2022-08-18T08:24:24.882Z,100.00
2022-08-18T08:26:56.532Z,100.00
2022-08-18T08:29:30.621Z,100.00
2022-08-18T08:32:02.836Z,100.00
2022-08-18T08:34:36.970Z,100.00
2022-08-18T08:37:08.494Z,100.00
2022-08-18T08:39:40.575Z,100.00
2022-08-18T08:42:31.005Z,100.00
2022-08-18T08:45:03.720Z,100.00
2022-08-18T08:47:36.159Z,100.00
2022-08-18T08:50:08.683Z,100.00
2022-08-18T08:52:39.769Z,100.00
2022-08-18T08:55:11.137Z,100.00
2022-08-18T08:57:43.358Z,100.00
2022-08-18T09:00:11.804Z,100.00
2022-08-18T09:02:48.985Z,100.00
2022-08-18T09:05:21.249Z,100.00
2022-08-18T09:08:03.224Z,100.00
2022-08-18T09:10:43.230Z,100.00
2022-08-18T09:13:29.130Z,100.00
2022-08-18T09:16:22.317Z,100.00
2022-08-18T09:18:56.633Z,100.00
2022-08-18T09:21:37.477Z,100.00
2022-08-18T09:24:11.111Z,100.00
2022-08-18T09:26:45.103Z,100.00
2022-08-18T09:29:19.014Z,100.00
2022-08-18T09:31:47.480Z,100.00
2022-08-18T09:34:31.987Z,100.00
2022-08-18T09:37:15.116Z,100.00
2022-08-18T09:40:11.075Z,100.00
2022-08-18T09:42:59.935Z,100.00
2022-08-18T09:45:54.720Z,100.00
2022-08-18T09:51:24.774Z,100.00
2022-08-18T09:53:54.606Z,100.00
2022-08-18T09:56:53.325Z,100.00
2022-08-18T09:59:40.614Z,100.00
2022-08-18T10:05:15.664Z,100.00
2022-08-18T10:07:45.057Z,100.00
2022-08-18T10:11:01.788Z,100.00
2022-08-18T10:13:14.671Z,100.00
2022-08-18T10:15:49.529Z,100.00
2022-08-18T10:18:27.685Z,100.00
2022-08-18T10:21:01.128Z,100.00
2022-08-18T10:23:48.007Z,100.00
2022-08-18T10:26:41.727Z,100.00
2022-08-18T10:29:41.994Z,100.00
2022-08-18T10:32:18.837Z,100.00
2022-08-18T10:34:51.897Z,100.00
2022-08-18T10:37:25.934Z,100.00
2022-08-18T10:39:55.897Z,100.00
2022-08-18T10:42:30.847Z,100.00
2022-08-18T10:45:06.638Z,100.00
2022-08-18T10:47:35.599Z,100.00
2022-08-18T10:50:10.985Z,100.00
2022-08-18T10:52:54.588Z,100.00
2022-08-18T10:55:48.124Z,100.00
2022-08-18T10:58:30.451Z,100.00
2022-08-18T11:01:08.392Z,100.00
2022-08-18T11:03:51.679Z,100.00
2022-08-18T11:06:26.732Z,100.00
2022-08-18T11:08:57.535Z,100.00
2022-08-18T11:14:25.209Z,100.00
2022-08-18T11:16:59.306Z,100.00
2022-08-18T11:19:27.840Z,100.00
2022-08-18T11:21:57.297Z,100.00
2022-08-18T11:24:27.164Z,100.00
2022-08-18T11:26:57.629Z,100.00
2022-08-18T11:32:21.302Z,100.00
2022-08-18T11:34:52.794Z,100.00
2022-08-18T11:37:27.102Z,100.00
2022-08-18T11:39:56.557Z,100.00
2022-08-18T11:42:29.419Z,100.00
2022-08-18T11:45:04.093Z,100.00
2022-08-18T11:47:32.650Z,100.00
2022-08-18T11:50:09.237Z,100.00
2022-08-18T11:52:54.017Z,100.00
2022-08-18T11:55:30.613Z,100.00
2022-08-18T11:58:00.358Z,100.00
2022-08-18T12:01:02.954Z,100.00
2022-08-18T12:03:38.186Z,100.00
2022-08-18T12:06:19.322Z,100.00
2022-08-18T12:08:58.109Z,100.00
2022-08-18T12:11:28.926Z,100.00
2022-08-18T12:16:54.143Z,100.00
2022-08-18T12:19:24.331Z,100.00
2022-08-18T12:21:53.514Z,100.00
2022-08-18T12:24:26.051Z,100.00
2022-08-18T12:26:54.702Z,100.00
2022-08-18T12:29:28.099Z,100.00
2022-08-18T12:32:00.961Z,100.00
2022-08-18T12:34:29.814Z,100.00
2022-08-18T12:37:00.929Z,100.00
2022-08-18T12:39:31.885Z,100.00
2022-08-18T12:42:00.172Z,100.00
2022-08-18T12:44:28.791Z,100.00
2022-08-18T12:46:57.345Z,100.00
2022-08-18T12:49:28.159Z,100.00
2022-08-18T12:51:57.887Z,100.00
2022-08-18T12:54:26.624Z,100.00
2022-08-18T12:56:59.134Z,100.00
2022-08-18T12:59:32.469Z,100.00
2022-08-18T13:02:05.727Z,100.00
2022-08-18T13:04:34.451Z,100.00
2022-08-18T13:07:05.693Z,100.00
2022-08-18T13:09:52.839Z,100.00
2022-08-18T13:12:25.737Z,100.00
2022-08-18T13:14:55.791Z,100.00
2022-08-18T13:17:29.665Z,100.00
2022-08-18T13:20:01.463Z,100.00
2022-08-18T13:22:32.305Z,100.00
2022-08-18T13:25:01.542Z,100.00
2022-08-18T13:27:35.664Z,100.00
2022-08-18T13:30:29.391Z,100.00
2022-08-18T13:33:00.744Z,100.00
2022-08-18T13:35:35.493Z,100.00
2022-08-18T13:38:14.613Z,100.00
2022-08-18T13:40:48.496Z,100.00
2022-08-18T13:43:18.995Z,100.00
2022-08-18T13:45:52.860Z,100.00
2022-08-18T13:48:24.178Z,100.00
2022-08-18T13:50:55.741Z,100.00
2022-08-18T13:53:24.698Z,100.00
2022-08-18T13:55:54.898Z,100.00
2022-08-18T13:58:24.705Z,100.00
2022-08-18T14:01:15.940Z,100.00
2022-08-18T14:03:47.651Z,100.00
2022-08-18T14:06:18.443Z,100.00
2022-08-18T14:08:51.178Z,100.00
2022-08-18T14:11:19.981Z,100.00
2022-08-18T14:13:50.158Z,100.00
2022-08-18T14:16:19.513Z,100.00
2022-08-18T14:19:09.439Z,100.00
2022-08-18T14:21:57.994Z,100.00
2022-08-18T14:24:43.859Z,100.00
2022-08-18T14:27:17.796Z,100.00
2022-08-18T14:29:49.822Z,100.00
2022-08-18T14:32:21.982Z,100.00
2022-08-18T14:35:00.260Z,100.00
2022-08-18T14:37:29.235Z,100.00
2022-08-18T14:39:58.401Z,100.00
2022-08-18T14:44:32.266Z,65.47
2022-08-18T14:47:01.204Z,65.50
2022-08-18T14:49:31.225Z,65.02
2022-08-18T14:52:00.404Z,65.21
2022-08-18T14:54:30.102Z,64.31
2022-08-18T14:56:59.943Z,65.31
2022-08-18T14:59:30.983Z,64.77
2022-08-18T15:02:11.205Z,64.17
2022-08-18T15:04:52.916Z,65.26
2022-08-18T15:07:25.776Z,65.28
2022-08-18T15:10:16.131Z,66.98
2022-08-18T15:12:43.891Z,66.90
2022-08-18T15:15:15.957Z,67.56
2022-08-18T15:17:50.214Z,67.79
2022-08-18T15:20:23.985Z,68.36
2022-08-18T15:23:24.920Z,68.04
2022-08-18T15:25:56.855Z,69.00
2022-08-18T15:28:28.073Z,69.38
2022-08-18T15:33:50.165Z,69.79
2022-08-18T15:36:28.875Z,70.37
2022-08-18T15:38:58.336Z,69.72
2022-08-18T15:41:34.767Z,69.40
2022-08-18T15:44:04.941Z,69.81
2022-08-18T15:46:36.340Z,70.56
2022-08-18T15:49:11.300Z,69.33
2022-08-18T15:51:45.207Z,68.43
2022-08-18T15:54:14.504Z,69.92
2022-08-18T15:56:43.273Z,70.88
2022-08-18T15:59:12.738Z,71.86
2022-08-18T16:01:46.286Z,72.66
2022-08-18T16:04:22.013Z,73.04
2022-08-18T16:06:56.319Z,74.00
2022-08-18T16:09:26.601Z,73.55
2022-08-18T16:11:57.725Z,73.58
2022-08-18T16:14:31.682Z,74.40
2022-08-18T16:17:06.092Z,75.31
2022-08-18T16:19:38.834Z,77.20
2022-08-18T16:22:07.754Z,77.20
2022-08-18T16:24:36.158Z,77.87
2022-08-18T16:27:06.728Z,78.61
2022-08-18T16:29:35.491Z,79.19
2022-08-18T16:32:06.443Z,79.58
2022-08-18T16:34:45.726Z,78.70
2022-08-18T16:39:44.557Z,80.70
2022-08-18T16:42:13.733Z,82.33
2022-08-18T16:44:42.816Z,80.97
2022-08-18T16:47:14.373Z,82.30
2022-08-18T16:49:45.639Z,83.39
2022-08-18T16:52:14.977Z,84.64
2022-08-18T16:54:44.982Z,84.55
2022-08-18T16:57:14.132Z,82.90
2022-08-18T16:59:59.806Z,84.33
2022-08-18T17:02:47.637Z,82.50
2022-08-18T17:05:18.212Z,82.83
2022-08-18T17:07:47.956Z,82.04
2022-08-18T17:10:16.566Z,82.45
2022-08-18T17:12:45.330Z,84.44
2022-08-18T17:15:15.219Z,83.63
2022-08-18T17:17:45.158Z,85.10
2022-08-18T17:20:16.719Z,84.48
2022-08-18T17:22:47.766Z,86.01
2022-08-18T17:25:21.501Z,84.43
2022-08-18T17:27:52.976Z,83.80
2022-08-18T17:30:23.708Z,84.21
2022-08-18T17:33:00.769Z,84.09
2022-08-18T17:35:40.357Z,84.05
2022-08-18T17:38:13.946Z,84.41
2022-08-18T17:40:48.604Z,86.58
2022-08-18T17:43:19.858Z,87.86
2022-08-18T17:45:54.906Z,89.73
2022-08-18T17:48:29.922Z,90.03
2022-08-18T17:51:32.582Z,89.55
2022-08-18T17:54:03.589Z,90.98
2022-08-18T17:56:37.282Z,93.33
2022-08-18T17:59:46.553Z,93.41
2022-08-18T18:02:28.534Z,93.90
2022-08-18T18:05:01.791Z,92.95
2022-08-18T18:07:33.642Z,94.10
2022-08-18T18:10:05.994Z,94.89
2022-08-18T18:12:36.782Z,94.12
2022-08-18T18:15:08.449Z,95.54
2022-08-18T18:17:39.137Z,95.27
2022-08-18T18:20:23.902Z,95.72
2022-08-18T18:22:53.352Z,97.42
2022-08-18T18:25:34.754Z,96.21
2022-08-18T18:28:03.870Z,98.03
2022-08-18T18:30:32.958Z,99.45
2022-08-18T18:33:02.754Z,95.96
2022-08-18T18:35:54.290Z,95.68
2022-08-18T18:38:30.516Z,96.91
2022-08-18T18:41:01.548Z,95.55
2022-08-18T18:43:38.344Z,96.34
2022-08-18T18:46:27.377Z,97.72
2022-08-18T18:49:08.016Z,98.40
2022-08-18T18:51:43.658Z,96.79
2022-08-18T18:54:21.519Z,99.74
2022-08-18T18:56:56.469Z,99.28
2022-08-18T18:59:41.079Z,97.12
2022-08-18T19:02:34.059Z,98.49
2022-08-18T19:05:14.272Z,100.00
2022-08-18T19:08:03.768Z,100.00
2022-08-18T19:10:45.423Z,100.00
2022-08-18T19:13:32.308Z,100.00
2022-08-18T19:16:23.722Z,100.00
2022-08-18T19:19:36.213Z,100.00
2022-08-18T19:22:04.198Z,100.00
2022-08-18T19:24:51.105Z,100.00
2022-08-18T19:27:28.638Z,100.00
2022-08-18T19:30:03.904Z,100.00
2022-08-18T19:32:39.352Z,100.00
2022-08-18T19:35:35.892Z,100.00
2022-08-18T19:38:24.711Z,100.00
2022-08-18T19:41:05.957Z,100.00
2022-08-18T19:43:44.984Z,100.00
2022-08-18T19:46:22.778Z,100.00
2022-08-18T19:48:56.698Z,100.00
2022-08-18T19:51:33.445Z,100.00
2022-08-18T19:54:21.739Z,100.00
2022-08-18T19:57:07.702Z,100.00
2022-08-18T20:00:12.897Z,100.00
2022-08-18T20:03:18.713Z,100.00
2022-08-18T20:05:55.048Z,100.00
2022-08-18T20:08:51.406Z,100.00
2022-08-18T20:11:41.834Z,100.00
2022-08-18T20:14:18.819Z,100.00
2022-08-18T20:17:17.818Z,100.00
2022-08-18T20:19:51.061Z,100.00
2022-08-18T20:22:31.722Z,100.00
2022-08-18T20:25:06.999Z,100.00
2022-08-18T20:27:38.469Z,100.00
2022-08-18T20:30:34.149Z,100.00
2022-08-18T20:33:30.882Z,100.00
2022-08-18T20:36:14.386Z,100.00
2022-08-18T20:38:46.918Z,100.00
2022-08-18T20:41:39.040Z,100.00
2022-08-18T20:44:47.497Z,100.00
2022-08-18T20:48:02.084Z,100.00
2022-08-18T20:51:00.118Z,100.00
2022-08-18T20:54:03.275Z,100.00
2022-08-18T20:56:46.662Z,100.00
2022-08-18T20:59:21.507Z,100.00
2022-08-18T21:02:22.469Z,100.00
2022-08-18T21:04:56.595Z,100.00
2022-08-18T21:07:36.446Z,100.00
2022-08-18T21:10:15.285Z,100.00
2022-08-18T21:12:52.825Z,100.00
2022-08-18T21:15:24.547Z,100.00
2022-08-18T21:18:09.454Z,100.00
2022-08-18T21:20:41.017Z,100.00
2022-08-18T21:23:13.148Z,100.00
2022-08-18T21:25:56.123Z,100.00
2022-08-18T21:28:32.509Z,100.00
2022-08-18T21:31:29.069Z,100.00
2022-08-18T21:33:56.562Z,100.00
2022-08-18T21:36:31.700Z,100.00
2022-08-18T21:39:06.136Z,100.00
2022-08-18T21:41:46.686Z,100.00
2022-08-18T21:44:23.135Z,100.00
2022-08-18T21:47:05.838Z,100.00
2022-08-18T21:49:36.415Z,100.00
2022-08-18T21:52:08.163Z,100.00
2022-08-18T21:58:21.482Z,100.00
2022-08-18T22:01:41.258Z,100.00
2022-08-18T22:04:42.915Z,100.00
2022-08-18T22:07:34.134Z,100.00
2022-08-18T22:10:40.593Z,100.00
2022-08-18T22:13:37.410Z,100.00
2022-08-18T22:16:36.892Z,100.00
2022-08-18T22:19:25.849Z,100.00
2022-08-18T22:22:46.912Z,100.00
2022-08-18T22:25:25.679Z,100.00
2022-08-18T22:27:57.767Z,100.00
2022-08-18T22:30:27.005Z,100.00
2022-08-18T22:32:55.549Z,100.00
2022-08-18T22:35:30.412Z,100.00
2022-08-18T22:38:01.645Z,100.00
2022-08-18T22:40:30.373Z,100.00
2022-08-18T22:43:31.941Z,100.00
2022-08-18T22:46:02.092Z,100.00
2022-08-18T22:51:25.603Z,100.00
2022-08-18T22:53:59.617Z,100.00
2022-08-18T22:56:34.474Z,100.00
2022-08-18T22:59:13.383Z,100.00
2022-08-18T23:01:45.315Z,100.00
2022-08-18T23:04:16.047Z,100.00
2022-08-18T23:06:52.402Z,100.00
2022-08-18T23:09:29.743Z,100.00
2022-08-18T23:12:14.926Z,100.00
2022-08-18T23:14:46.472Z,100.00
2022-08-18T23:17:15.833Z,100.00
2022-08-18T23:19:46.651Z,100.00
2022-08-18T23:22:16.118Z,100.00
2022-08-18T23:24:46.142Z,100.00
2022-08-18T23:27:14.804Z,100.00
2022-08-18T23:29:43.613Z,100.00
2022-08-18T23:32:13.183Z,100.00
2022-08-18T23:34:41.632Z,100.00
2022-08-18T23:37:10.836Z,100.00
2022-08-18T23:39:39.814Z,100.00
2022-08-18T23:42:12.906Z,100.00
2022-08-18T23:44:43.404Z,100.00
2022-08-18T23:47:11.968Z,100.00
2022-08-18T23:49:40.480Z,100.00
2022-08-18T23:52:09.696Z,100.00
2022-08-18T23:54:38.622Z,100.00
2022-08-18T23:57:07.442Z,100.00
2022-08-18T23:59:37.798Z,100.00
